sensor_id;sensor_type;location;lat;lon;timestamp;temperature;humidity
56861;DHT22;42744;51.094;3.490;2023-05-07T00:02:00;15.50;99.90
56861;DHT22;42744;51.094;3.490;2023-05-07T00:04:26;15.50;99.90
56861;DHT22;42744;51.094;3.490;2023-05-07T00:06:53;15.60;99.90
56861;DHT22;42744;51.094;3.490;2023-05-07T00:09:19;15.60;99.90
56861;DHT22;42744;51.094;3.490;2023-05-07T00:11:45;15.60;99.90
56861;DHT22;42744;51.094;3.490;2023-05-07T00:14:12;15.60;99.90
56861;DHT22;42744;51.094;3.490;2023-05-07T00:16:37;15.60;99.90
56861;DHT22;42744;51.094;3.490;2023-05-07T00:19:04;15.50;99.90
56861;DHT22;42744;51.094;3.490;2023-05-07T00:21:30;15.50;99.90
56861;DHT22;42744;51.094;3.490;2023-05-07T00:23:56;15.50;99.90
56861;DHT22;42744;51.094;3.490;2023-05-07T00:26:22;15.40;99.90
56861;DHT22;42744;51.094;3.490;2023-05-07T00:28:49;15.40;99.90
56861;DHT22;42744;51.094;3.490;2023-05-07T00:31:15;15.40;99.90
56861;DHT22;42744;51.094;3.490;2023-05-07T00:33:41;15.40;99.90
56861;DHT22;42744;51.094;3.490;2023-05-07T00:36:07;15.40;99.90
56861;DHT22;42744;51.094;3.490;2023-05-07T00:38:33;15.40;99.90
56861;DHT22;42744;51.094;3.490;2023-05-07T00:40:59;15.40;99.90
56861;DHT22;42744;51.094;3.490;2023-05-07T00:43:25;15.50;99.90
56861;DHT22;42744;51.094;3.490;2023-05-07T00:45:53;15.50;99.90
56861;DHT22;42744;51.094;3.490;2023-05-07T00:48:19;15.50;99.90
56861;DHT22;42744;51.094;3.490;2023-05-07T00:50:46;15.50;99.90
56861;DHT22;42744;51.094;3.490;2023-05-07T00:53:13;15.50;99.90
56861;DHT22;42744;51.094;3.490;2023-05-07T00:55:39;15.50;99.90
56861;DHT22;42744;51.094;3.490;2023-05-07T00:58:06;15.50;99.90
56861;DHT22;42744;51.094;3.490;2023-05-07T01:00:32;15.60;99.90
56861;DHT22;42744;51.094;3.490;2023-05-07T01:02:58;15.50;99.90
56861;DHT22;42744;51.094;3.490;2023-05-07T01:05:24;15.50;99.90
56861;DHT22;42744;51.094;3.490;2023-05-07T01:07:52;15.50;99.90
56861;DHT22;42744;51.094;3.490;2023-05-07T01:10:19;15.50;99.90
56861;DHT22;42744;51.094;3.490;2023-05-07T01:12:46;15.50;99.90
56861;DHT22;42744;51.094;3.490;2023-05-07T01:15:13;15.50;99.90
56861;DHT22;42744;51.094;3.490;2023-05-07T01:17:41;15.40;99.90
56861;DHT22;42744;51.094;3.490;2023-05-07T01:20:09;15.40;99.90
56861;DHT22;42744;51.094;3.490;2023-05-07T01:22:37;15.40;99.90
56861;DHT22;42744;51.094;3.490;2023-05-07T01:25:06;15.30;99.90
56861;DHT22;42744;51.094;3.490;2023-05-07T01:27:34;15.30;99.90
56861;DHT22;42744;51.094;3.490;2023-05-07T01:30:03;15.20;99.90
56861;DHT22;42744;51.094;3.490;2023-05-07T01:32:35;15.20;99.90
56861;DHT22;42744;51.094;3.490;2023-05-07T01:35:05;15.20;99.90
56861;DHT22;42744;51.094;3.490;2023-05-07T01:37:32;15.20;99.90
56861;DHT22;42744;51.094;3.490;2023-05-07T01:39:58;15.10;99.90
56861;DHT22;42744;51.094;3.490;2023-05-07T01:42:25;15.10;99.90
56861;DHT22;42744;51.094;3.490;2023-05-07T01:44:51;15.10;99.90
56861;DHT22;42744;51.094;3.490;2023-05-07T01:47:17;15.00;99.90
56861;DHT22;42744;51.094;3.490;2023-05-07T01:49:44;15.00;99.90
56861;DHT22;42744;51.094;3.490;2023-05-07T01:52:11;15.00;99.90
56861;DHT22;42744;51.094;3.490;2023-05-07T01:54:37;15.00;99.90
56861;DHT22;42744;51.094;3.490;2023-05-07T01:57:04;14.90;99.90
56861;DHT22;42744;51.094;3.490;2023-05-07T01:59:30;14.90;99.90
56861;DHT22;42744;51.094;3.490;2023-05-07T02:01:56;14.80;99.90
56861;DHT22;42744;51.094;3.490;2023-05-07T02:04:22;14.80;99.90
56861;DHT22;42744;51.094;3.490;2023-05-07T02:06:50;14.80;99.90
56861;DHT22;42744;51.094;3.490;2023-05-07T02:09:16;14.80;99.90
56861;DHT22;42744;51.094;3.490;2023-05-07T02:11:43;14.70;99.90
56861;DHT22;42744;51.094;3.490;2023-05-07T02:14:10;14.70;99.90
56861;DHT22;42744;51.094;3.490;2023-05-07T02:16:36;14.70;99.90
56861;DHT22;42744;51.094;3.490;2023-05-07T02:19:02;14.70;99.90
56861;DHT22;42744;51.094;3.490;2023-05-07T02:21:28;14.70;99.90
56861;DHT22;42744;51.094;3.490;2023-05-07T02:23:54;14.60;99.90
56861;DHT22;42744;51.094;3.490;2023-05-07T02:26:20;14.50;99.90
56861;DHT22;42744;51.094;3.490;2023-05-07T02:28:47;14.50;99.90
56861;DHT22;42744;51.094;3.490;2023-05-07T02:31:13;14.50;99.90
56861;DHT22;42744;51.094;3.490;2023-05-07T02:33:40;14.40;99.90
56861;DHT22;42744;51.094;3.490;2023-05-07T02:36:07;14.40;99.90
56861;DHT22;42744;51.094;3.490;2023-05-07T02:38:34;14.40;99.90
56861;DHT22;42744;51.094;3.490;2023-05-07T02:41:00;14.30;99.90
56861;DHT22;42744;51.094;3.490;2023-05-07T02:43:26;14.30;99.90
56861;DHT22;42744;51.094;3.490;2023-05-07T02:46:06;14.30;99.90
56861;DHT22;42744;51.094;3.490;2023-05-07T02:48:34;14.20;99.90
56861;DHT22;42744;51.094;3.490;2023-05-07T02:51:01;14.30;99.90
56861;DHT22;42744;51.094;3.490;2023-05-07T02:53:27;14.20;99.90
56861;DHT22;42744;51.094;3.490;2023-05-07T02:55:54;14.20;99.90
56861;DHT22;42744;51.094;3.490;2023-05-07T02:58:20;14.20;99.90
56861;DHT22;42744;51.094;3.490;2023-05-07T03:00:46;14.30;99.90
56861;DHT22;42744;51.094;3.490;2023-05-07T03:03:14;14.20;99.90
56861;DHT22;42744;51.094;3.490;2023-05-07T03:05:41;14.20;99.90
56861;DHT22;42744;51.094;3.490;2023-05-07T03:08:07;14.20;99.90
56861;DHT22;42744;51.094;3.490;2023-05-07T03:10:34;14.20;99.90
56861;DHT22;42744;51.094;3.490;2023-05-07T03:13:01;14.20;99.90
56861;DHT22;42744;51.094;3.490;2023-05-07T03:15:27;14.20;99.90
56861;DHT22;42744;51.094;3.490;2023-05-07T03:17:53;14.20;99.90
56861;DHT22;42744;51.094;3.490;2023-05-07T03:20:19;14.20;99.90
56861;DHT22;42744;51.094;3.490;2023-05-07T03:22:45;14.20;99.90
56861;DHT22;42744;51.094;3.490;2023-05-07T03:25:12;14.20;99.90
56861;DHT22;42744;51.094;3.490;2023-05-07T03:27:38;14.20;99.90
56861;DHT22;42744;51.094;3.490;2023-05-07T03:30:04;14.10;99.90
56861;DHT22;42744;51.094;3.490;2023-05-07T03:32:33;14.10;99.90
56861;DHT22;42744;51.094;3.490;2023-05-07T03:34:59;14.10;99.90
56861;DHT22;42744;51.094;3.490;2023-05-07T03:37:25;14.10;99.90
56861;DHT22;42744;51.094;3.490;2023-05-07T03:39:51;14.00;99.90
56861;DHT22;42744;51.094;3.490;2023-05-07T03:42:17;14.10;99.90
56861;DHT22;42744;51.094;3.490;2023-05-07T03:44:45;14.00;99.90
56861;DHT22;42744;51.094;3.490;2023-05-07T03:47:11;14.00;99.90
56861;DHT22;42744;51.094;3.490;2023-05-07T03:49:39;14.00;99.90
56861;DHT22;42744;51.094;3.490;2023-05-07T03:52:06;14.00;99.90
56861;DHT22;42744;51.094;3.490;2023-05-07T03:54:33;14.00;99.90
56861;DHT22;42744;51.094;3.490;2023-05-07T03:56:58;14.00;99.90
56861;DHT22;42744;51.094;3.490;2023-05-07T03:59:25;13.90;99.90
56861;DHT22;42744;51.094;3.490;2023-05-07T04:01:52;14.00;99.90
56861;DHT22;42744;51.094;3.490;2023-05-07T04:04:21;13.90;99.90
56861;DHT22;42744;51.094;3.490;2023-05-07T04:06:47;13.90;99.90
56861;DHT22;42744;51.094;3.490;2023-05-07T04:09:14;13.90;99.90
56861;DHT22;42744;51.094;3.490;2023-05-07T04:11:40;13.90;99.90
56861;DHT22;42744;51.094;3.490;2023-05-07T04:14:07;13.90;99.90
56861;DHT22;42744;51.094;3.490;2023-05-07T04:16:35;13.90;99.90
56861;DHT22;42744;51.094;3.490;2023-05-07T04:19:01;13.90;99.90
56861;DHT22;42744;51.094;3.490;2023-05-07T04:21:27;13.90;99.90
56861;DHT22;42744;51.094;3.490;2023-05-07T04:23:55;13.90;99.90
56861;DHT22;42744;51.094;3.490;2023-05-07T04:26:21;13.90;99.90
56861;DHT22;42744;51.094;3.490;2023-05-07T04:28:47;13.90;99.90
56861;DHT22;42744;51.094;3.490;2023-05-07T04:31:14;13.90;99.90
56861;DHT22;42744;51.094;3.490;2023-05-07T04:33:40;13.90;99.90
56861;DHT22;42744;51.094;3.490;2023-05-07T04:36:07;13.90;99.90
56861;DHT22;42744;51.094;3.490;2023-05-07T04:38:34;14.00;99.90
56861;DHT22;42744;51.094;3.490;2023-05-07T04:41:05;14.00;99.90
56861;DHT22;42744;51.094;3.490;2023-05-07T04:43:32;14.00;99.90
56861;DHT22;42744;51.094;3.490;2023-05-07T04:45:58;14.00;99.90
56861;DHT22;42744;51.094;3.490;2023-05-07T04:48:26;14.00;99.90
56861;DHT22;42744;51.094;3.490;2023-05-07T04:50:52;14.00;99.90
56861;DHT22;42744;51.094;3.490;2023-05-07T04:53:19;14.00;99.90
56861;DHT22;42744;51.094;3.490;2023-05-07T04:55:45;14.00;99.90
56861;DHT22;42744;51.094;3.490;2023-05-07T04:58:12;14.10;99.90
56861;DHT22;42744;51.094;3.490;2023-05-07T05:00:38;14.10;99.90
56861;DHT22;42744;51.094;3.490;2023-05-07T05:03:08;14.20;99.90
56861;DHT22;42744;51.094;3.490;2023-05-07T05:05:35;14.20;99.90
56861;DHT22;42744;51.094;3.490;2023-05-07T05:08:02;14.20;99.90
56861;DHT22;42744;51.094;3.490;2023-05-07T05:10:28;14.20;99.90
56861;DHT22;42744;51.094;3.490;2023-05-07T05:12:54;14.20;99.90
56861;DHT22;42744;51.094;3.490;2023-05-07T05:15:21;14.20;99.90
56861;DHT22;42744;51.094;3.490;2023-05-07T05:17:47;14.20;99.90
56861;DHT22;42744;51.094;3.490;2023-05-07T05:20:14;14.20;99.90
56861;DHT22;42744;51.094;3.490;2023-05-07T05:22:41;14.20;99.90
56861;DHT22;42744;51.094;3.490;2023-05-07T05:25:08;14.20;99.90
56861;DHT22;42744;51.094;3.490;2023-05-07T05:27:34;14.30;99.90
56861;DHT22;42744;51.094;3.490;2023-05-07T05:30:01;14.30;99.90
56861;DHT22;42744;51.094;3.490;2023-05-07T05:32:29;14.30;99.90
56861;DHT22;42744;51.094;3.490;2023-05-07T05:34:56;14.30;99.90
56861;DHT22;42744;51.094;3.490;2023-05-07T05:37:21;14.40;99.90
56861;DHT22;42744;51.094;3.490;2023-05-07T05:39:49;14.30;99.90
56861;DHT22;42744;51.094;3.490;2023-05-07T05:42:15;14.40;99.90
56861;DHT22;42744;51.094;3.490;2023-05-07T05:44:41;14.40;99.90
56861;DHT22;42744;51.094;3.490;2023-05-07T05:47:07;14.40;99.90
56861;DHT22;42744;51.094;3.490;2023-05-07T05:49:34;14.50;99.90
56861;DHT22;42744;51.094;3.490;2023-05-07T05:52:02;14.40;99.90
56861;DHT22;42744;51.094;3.490;2023-05-07T05:54:28;14.50;99.90
56861;DHT22;42744;51.094;3.490;2023-05-07T05:56:54;14.50;99.90
56861;DHT22;42744;51.094;3.490;2023-05-07T05:59:21;14.60;99.90
56861;DHT22;42744;51.094;3.490;2023-05-07T06:01:48;14.60;99.90
56861;DHT22;42744;51.094;3.490;2023-05-07T06:04:14;14.70;99.90
56861;DHT22;42744;51.094;3.490;2023-05-07T06:06:40;14.70;99.90
56861;DHT22;42744;51.094;3.490;2023-05-07T06:09:06;14.70;99.90
56861;DHT22;42744;51.094;3.490;2023-05-07T06:11:33;14.70;99.90
56861;DHT22;42744;51.094;3.490;2023-05-07T06:13:59;14.70;99.90
56861;DHT22;42744;51.094;3.490;2023-05-07T06:16:26;14.80;99.90
56861;DHT22;42744;51.094;3.490;2023-05-07T06:18:52;14.80;99.90
56861;DHT22;42744;51.094;3.490;2023-05-07T06:21:18;14.80;99.90
56861;DHT22;42744;51.094;3.490;2023-05-07T06:23:44;14.80;99.90
56861;DHT22;42744;51.094;3.490;2023-05-07T06:26:10;14.90;99.90
56861;DHT22;42744;51.094;3.490;2023-05-07T06:28:37;14.90;99.90
56861;DHT22;42744;51.094;3.490;2023-05-07T06:31:13;14.90;99.90
56861;DHT22;42744;51.094;3.490;2023-05-07T06:33:40;15.00;99.90
56861;DHT22;42744;51.094;3.490;2023-05-07T06:36:06;15.00;99.90
56861;DHT22;42744;51.094;3.490;2023-05-07T06:38:32;15.00;99.90
56861;DHT22;42744;51.094;3.490;2023-05-07T06:40:58;15.10;99.90
56861;DHT22;42744;51.094;3.490;2023-05-07T06:43:24;15.10;99.90
56861;DHT22;42744;51.094;3.490;2023-05-07T06:45:52;15.10;99.90
56861;DHT22;42744;51.094;3.490;2023-05-07T06:48:19;15.10;99.90
56861;DHT22;42744;51.094;3.490;2023-05-07T06:50:45;15.10;99.90
56861;DHT22;42744;51.094;3.490;2023-05-07T06:53:11;15.10;99.90
56861;DHT22;42744;51.094;3.490;2023-05-07T06:55:38;15.10;99.90
56861;DHT22;42744;51.094;3.490;2023-05-07T06:58:05;15.20;99.90
56861;DHT22;42744;51.094;3.490;2023-05-07T07:00:31;15.20;99.90
56861;DHT22;42744;51.094;3.490;2023-05-07T07:02:58;15.20;99.90
56861;DHT22;42744;51.094;3.490;2023-05-07T07:05:26;15.20;99.90
56861;DHT22;42744;51.094;3.490;2023-05-07T07:07:53;15.20;99.90
56861;DHT22;42744;51.094;3.490;2023-05-07T07:10:20;15.20;99.90
56861;DHT22;42744;51.094;3.490;2023-05-07T07:12:46;15.20;99.90
56861;DHT22;42744;51.094;3.490;2023-05-07T07:15:13;15.30;99.90
56861;DHT22;42744;51.094;3.490;2023-05-07T07:17:40;15.30;99.90
56861;DHT22;42744;51.094;3.490;2023-05-07T07:20:07;15.30;99.90
56861;DHT22;42744;51.094;3.490;2023-05-07T07:22:34;15.30;99.90
56861;DHT22;42744;51.094;3.490;2023-05-07T07:25:00;15.30;99.90
56861;DHT22;42744;51.094;3.490;2023-05-07T07:27:26;15.30;99.90
56861;DHT22;42744;51.094;3.490;2023-05-07T07:29:52;15.30;99.90
56861;DHT22;42744;51.094;3.490;2023-05-07T07:32:18;15.40;99.90
56861;DHT22;42744;51.094;3.490;2023-05-07T07:34:45;15.40;99.90
56861;DHT22;42744;51.094;3.490;2023-05-07T07:37:12;15.40;99.90
56861;DHT22;42744;51.094;3.490;2023-05-07T07:39:38;15.50;99.90
56861;DHT22;42744;51.094;3.490;2023-05-07T07:42:05;15.50;99.90
56861;DHT22;42744;51.094;3.490;2023-05-07T07:44:32;15.50;99.90
56861;DHT22;42744;51.094;3.490;2023-05-07T07:46:58;15.50;99.90
56861;DHT22;42744;51.094;3.490;2023-05-07T07:49:25;15.50;99.90
56861;DHT22;42744;51.094;3.490;2023-05-07T07:51:51;15.50;99.90
56861;DHT22;42744;51.094;3.490;2023-05-07T07:54:17;15.50;99.90
56861;DHT22;42744;51.094;3.490;2023-05-07T07:56:43;15.60;99.90
56861;DHT22;42744;51.094;3.490;2023-05-07T07:59:09;15.60;99.90
56861;DHT22;42744;51.094;3.490;2023-05-07T08:01:37;15.60;99.90
56861;DHT22;42744;51.094;3.490;2023-05-07T08:04:04;15.60;99.90
56861;DHT22;42744;51.094;3.490;2023-05-07T08:06:32;15.60;99.90
56861;DHT22;42744;51.094;3.490;2023-05-07T08:08:58;15.60;99.90
56861;DHT22;42744;51.094;3.490;2023-05-07T08:11:24;15.70;99.90
56861;DHT22;42744;51.094;3.490;2023-05-07T08:13:51;15.70;99.90
56861;DHT22;42744;51.094;3.490;2023-05-07T08:16:18;15.80;99.90
56861;DHT22;42744;51.094;3.490;2023-05-07T08:18:44;15.80;99.90
56861;DHT22;42744;51.094;3.490;2023-05-07T08:21:10;15.90;99.90
56861;DHT22;42744;51.094;3.490;2023-05-07T08:23:36;15.90;99.90
56861;DHT22;42744;51.094;3.490;2023-05-07T08:26:03;15.90;99.90
56861;DHT22;42744;51.094;3.490;2023-05-07T08:28:29;15.90;99.90
56861;DHT22;42744;51.094;3.490;2023-05-07T08:30:55;16.00;99.90
56861;DHT22;42744;51.094;3.490;2023-05-07T08:33:23;16.00;99.90
56861;DHT22;42744;51.094;3.490;2023-05-07T08:35:49;16.00;99.90
56861;DHT22;42744;51.094;3.490;2023-05-07T08:38:16;16.10;99.90
56861;DHT22;42744;51.094;3.490;2023-05-07T08:40:42;16.10;99.90
56861;DHT22;42744;51.094;3.490;2023-05-07T08:43:12;16.10;99.90
56861;DHT22;42744;51.094;3.490;2023-05-07T08:45:40;16.20;99.90
56861;DHT22;42744;51.094;3.490;2023-05-07T08:48:15;16.10;99.90
56861;DHT22;42744;51.094;3.490;2023-05-07T08:50:42;16.10;99.90
56861;DHT22;42744;51.094;3.490;2023-05-07T08:53:10;16.20;99.90
56861;DHT22;42744;51.094;3.490;2023-05-07T08:55:36;16.20;99.90
56861;DHT22;42744;51.094;3.490;2023-05-07T08:58:02;16.30;99.90
56861;DHT22;42744;51.094;3.490;2023-05-07T09:00:29;16.30;99.90
56861;DHT22;42744;51.094;3.490;2023-05-07T09:02:56;16.40;99.90
56861;DHT22;42744;51.094;3.490;2023-05-07T09:05:22;16.40;99.90
56861;DHT22;42744;51.094;3.490;2023-05-07T09:07:49;16.40;99.90
56861;DHT22;42744;51.094;3.490;2023-05-07T09:10:16;16.50;99.90
56861;DHT22;42744;51.094;3.490;2023-05-07T09:12:42;16.50;99.90
56861;DHT22;42744;51.094;3.490;2023-05-07T09:15:09;16.50;99.90
56861;DHT22;42744;51.094;3.490;2023-05-07T09:17:35;16.50;99.90
56861;DHT22;42744;51.094;3.490;2023-05-07T09:20:06;16.60;99.90
56861;DHT22;42744;51.094;3.490;2023-05-07T09:22:33;16.50;99.90
56861;DHT22;42744;51.094;3.490;2023-05-07T09:24:59;16.50;99.90
56861;DHT22;42744;51.094;3.490;2023-05-07T09:27:26;16.60;99.90
56861;DHT22;42744;51.094;3.490;2023-05-07T09:29:52;16.60;99.90
56861;DHT22;42744;51.094;3.490;2023-05-07T09:32:18;16.60;99.90
56861;DHT22;42744;51.094;3.490;2023-05-07T09:34:45;16.70;99.90
56861;DHT22;42744;51.094;3.490;2023-05-07T09:37:13;16.80;99.90
56861;DHT22;42744;51.094;3.490;2023-05-07T09:39:48;16.80;99.90
56861;DHT22;42744;51.094;3.490;2023-05-07T09:42:16;16.90;99.90
56861;DHT22;42744;51.094;3.490;2023-05-07T09:44:49;16.90;99.90
56861;DHT22;42744;51.094;3.490;2023-05-07T09:47:19;17.00;99.90
56861;DHT22;42744;51.094;3.490;2023-05-07T09:49:48;17.00;99.90
56861;DHT22;42744;51.094;3.490;2023-05-07T09:52:15;17.10;99.90
56861;DHT22;42744;51.094;3.490;2023-05-07T09:54:43;17.10;99.90
56861;DHT22;42744;51.094;3.490;2023-05-07T09:57:13;17.20;99.90
56861;DHT22;42744;51.094;3.490;2023-05-07T09:59:42;17.20;99.90
56861;DHT22;42744;51.094;3.490;2023-05-07T10:02:10;17.30;99.90
56861;DHT22;42744;51.094;3.490;2023-05-07T10:04:38;17.30;99.90
56861;DHT22;42744;51.094;3.490;2023-05-07T10:07:07;17.40;99.90
56861;DHT22;42744;51.094;3.490;2023-05-07T10:09:35;17.40;99.90
56861;DHT22;42744;51.094;3.490;2023-05-07T10:12:05;17.50;99.90
56861;DHT22;42744;51.094;3.490;2023-05-07T10:14:32;17.60;99.90
56861;DHT22;42744;51.094;3.490;2023-05-07T10:17:00;17.60;99.90
56861;DHT22;42744;51.094;3.490;2023-05-07T10:19:29;17.70;99.90
56861;DHT22;42744;51.094;3.490;2023-05-07T10:22:01;17.70;99.90
56861;DHT22;42744;51.094;3.490;2023-05-07T10:24:32;17.80;99.90
56861;DHT22;42744;51.094;3.490;2023-05-07T10:27:02;17.70;99.90
56861;DHT22;42744;51.094;3.490;2023-05-07T10:29:33;17.70;99.90
56861;DHT22;42744;51.094;3.490;2023-05-07T10:35:02;17.90;99.90
56861;DHT22;42744;51.094;3.490;2023-05-07T10:37:29;17.90;99.90
56861;DHT22;42744;51.094;3.490;2023-05-07T10:39:56;18.00;99.90
56861;DHT22;42744;51.094;3.490;2023-05-07T10:42:24;18.00;99.90
56861;DHT22;42744;51.094;3.490;2023-05-07T10:44:50;18.00;99.90
56861;DHT22;42744;51.094;3.490;2023-05-07T10:47:17;18.10;99.90
56861;DHT22;42744;51.094;3.490;2023-05-07T10:54:45;17.90;99.90
56861;DHT22;42744;51.094;3.490;2023-05-07T11:05:28;18.00;99.90
56861;DHT22;42744;51.094;3.490;2023-05-07T11:07:57;17.90;99.90
56861;DHT22;42744;51.094;3.490;2023-05-07T11:11:08;17.90;99.90
56861;DHT22;42744;51.094;3.490;2023-05-07T11:13:17;17.90;99.90
56861;DHT22;42744;51.094;3.490;2023-05-07T11:15:48;18.00;99.90
56861;DHT22;42744;51.094;3.490;2023-05-07T11:18:16;17.90;99.90
56861;DHT22;42744;51.094;3.490;2023-05-07T11:20:51;18.00;99.90
56861;DHT22;42744;51.094;3.490;2023-05-07T11:26:02;18.00;99.90
56861;DHT22;42744;51.094;3.490;2023-05-07T11:28:29;17.90;99.90
56861;DHT22;42744;51.094;3.490;2023-05-07T11:30:57;17.90;99.90
56861;DHT22;42744;51.094;3.490;2023-05-07T11:33:25;17.90;99.90
56861;DHT22;42744;51.094;3.490;2023-05-07T11:35:53;18.00;99.90
56861;DHT22;42744;51.094;3.490;2023-05-07T11:38:21;18.00;99.90
56861;DHT22;42744;51.094;3.490;2023-05-07T11:40:52;18.00;99.90
56861;DHT22;42744;51.094;3.490;2023-05-07T11:43:18;18.00;99.90
56861;DHT22;42744;51.094;3.490;2023-05-07T11:45:45;18.00;99.90
56861;DHT22;42744;51.094;3.490;2023-05-07T11:48:16;17.90;99.90
56861;DHT22;42744;51.094;3.490;2023-05-07T11:50:52;17.90;99.90
56861;DHT22;42744;51.094;3.490;2023-05-07T11:53:25;17.90;99.90
56861;DHT22;42744;51.094;3.490;2023-05-07T11:55:57;18.10;99.90
56861;DHT22;42744;51.094;3.490;2023-05-07T11:58:24;18.10;99.90
56861;DHT22;42744;51.094;3.490;2023-05-07T12:00:52;18.30;99.90
56861;DHT22;42744;51.094;3.490;2023-05-07T12:03:19;18.30;99.90
56861;DHT22;42744;51.094;3.490;2023-05-07T12:05:48;18.20;99.90
56861;DHT22;42744;51.094;3.490;2023-05-07T12:08:15;18.20;99.90
56861;DHT22;42744;51.094;3.490;2023-05-07T12:10:47;18.10;99.90
56861;DHT22;42744;51.094;3.490;2023-05-07T12:13:20;18.00;99.90
56861;DHT22;42744;51.094;3.490;2023-05-07T12:15:50;18.10;99.90
56861;DHT22;42744;51.094;3.490;2023-05-07T12:18:16;18.10;99.90
56861;DHT22;42744;51.094;3.490;2023-05-07T12:20:42;18.10;99.90
56861;DHT22;42744;51.094;3.490;2023-05-07T12:23:09;18.10;99.90
56861;DHT22;42744;51.094;3.490;2023-05-07T12:25:37;18.10;99.90
56861;DHT22;42744;51.094;3.490;2023-05-07T12:28:04;18.10;99.90
56861;DHT22;42744;51.094;3.490;2023-05-07T12:30:40;18.20;99.90
56861;DHT22;42744;51.094;3.490;2023-05-07T12:33:06;18.10;99.90
56861;DHT22;42744;51.094;3.490;2023-05-07T12:35:37;18.10;99.90
56861;DHT22;42744;51.094;3.490;2023-05-07T12:38:12;18.10;99.90
56861;DHT22;42744;51.094;3.490;2023-05-07T12:40:43;18.10;99.90
56861;DHT22;42744;51.094;3.490;2023-05-07T12:45:46;18.10;99.90
56861;DHT22;42744;51.094;3.490;2023-05-07T12:48:12;18.10;99.90
56861;DHT22;42744;51.094;3.490;2023-05-07T12:50:38;18.10;99.90
56861;DHT22;42744;51.094;3.490;2023-05-07T12:53:06;18.00;99.90
56861;DHT22;42744;51.094;3.490;2023-05-07T12:55:43;18.00;99.90
56861;DHT22;42744;51.094;3.490;2023-05-07T12:58:26;18.00;99.90
56861;DHT22;42744;51.094;3.490;2023-05-07T13:00:54;18.10;99.90
56861;DHT22;42744;51.094;3.490;2023-05-07T13:03:34;18.10;99.90
56861;DHT22;42744;51.094;3.490;2023-05-07T13:06:01;18.20;99.90
56861;DHT22;42744;51.094;3.490;2023-05-07T13:08:30;18.20;99.90
56861;DHT22;42744;51.094;3.490;2023-05-07T13:11:01;18.30;99.90
56861;DHT22;42744;51.094;3.490;2023-05-07T13:13:32;18.40;99.90
56861;DHT22;42744;51.094;3.490;2023-05-07T13:15:59;18.40;99.90
56861;DHT22;42744;51.094;3.490;2023-05-07T13:18:26;18.40;99.90
56861;DHT22;42744;51.094;3.490;2023-05-07T13:20:53;18.40;99.90
56861;DHT22;42744;51.094;3.490;2023-05-07T13:23:19;18.40;99.90
56861;DHT22;42744;51.094;3.490;2023-05-07T13:25:45;18.40;99.90
56861;DHT22;42744;51.094;3.490;2023-05-07T13:28:11;18.40;99.90
56861;DHT22;42744;51.094;3.490;2023-05-07T13:30:38;18.50;99.90
56861;DHT22;42744;51.094;3.490;2023-05-07T13:33:04;18.60;99.90
56861;DHT22;42744;51.094;3.490;2023-05-07T13:35:30;18.70;99.90
56861;DHT22;42744;51.094;3.490;2023-05-07T13:37:56;18.70;99.90
56861;DHT22;42744;51.094;3.490;2023-05-07T13:40:22;18.80;99.90
56861;DHT22;42744;51.094;3.490;2023-05-07T13:42:49;18.90;99.90
56861;DHT22;42744;51.094;3.490;2023-05-07T13:45:16;19.00;99.90
56861;DHT22;42744;51.094;3.490;2023-05-07T13:47:42;19.00;99.90
56861;DHT22;42744;51.094;3.490;2023-05-07T13:50:09;19.00;99.90
56861;DHT22;42744;51.094;3.490;2023-05-07T13:52:44;19.10;99.90
56861;DHT22;42744;51.094;3.490;2023-05-07T13:55:23;19.20;99.90
56861;DHT22;42744;51.094;3.490;2023-05-07T13:57:55;19.20;99.90
56861;DHT22;42744;51.094;3.490;2023-05-07T14:00:23;19.30;99.90
56861;DHT22;42744;51.094;3.490;2023-05-07T14:02:49;19.30;99.90
56861;DHT22;42744;51.094;3.490;2023-05-07T14:05:15;19.30;99.90
56861;DHT22;42744;51.094;3.490;2023-05-07T14:07:41;19.40;99.90
56861;DHT22;42744;51.094;3.490;2023-05-07T14:10:08;19.50;99.90
56861;DHT22;42744;51.094;3.490;2023-05-07T14:12:35;19.60;99.90
56861;DHT22;42744;51.094;3.490;2023-05-07T14:15:01;19.60;99.90
56861;DHT22;42744;51.094;3.490;2023-05-07T14:17:27;19.80;99.90
56861;DHT22;42744;51.094;3.490;2023-05-07T14:19:53;19.90;99.90
56861;DHT22;42744;51.094;3.490;2023-05-07T14:22:20;20.00;99.90
56861;DHT22;42744;51.094;3.490;2023-05-07T14:24:48;20.10;99.90
56861;DHT22;42744;51.094;3.490;2023-05-07T14:27:14;20.20;99.90
56861;DHT22;42744;51.094;3.490;2023-05-07T14:29:41;20.30;99.90
56861;DHT22;42744;51.094;3.490;2023-05-07T14:32:08;20.20;99.90
56861;DHT22;42744;51.094;3.490;2023-05-07T14:34:34;20.20;99.90
56861;DHT22;42744;51.094;3.490;2023-05-07T14:37:00;20.10;99.90
56861;DHT22;42744;51.094;3.490;2023-05-07T14:39:26;20.00;99.90
56861;DHT22;42744;51.094;3.490;2023-05-07T14:41:52;19.90;99.90
56861;DHT22;42744;51.094;3.490;2023-05-07T14:44:20;19.80;99.90
56861;DHT22;42744;51.094;3.490;2023-05-07T14:46:47;19.70;99.90
56861;DHT22;42744;51.094;3.490;2023-05-07T14:49:14;19.70;99.90
56861;DHT22;42744;51.094;3.490;2023-05-07T14:51:46;19.70;99.90
56861;DHT22;42744;51.094;3.490;2023-05-07T14:54:13;19.60;99.90
56861;DHT22;42744;51.094;3.490;2023-05-07T14:56:40;19.50;99.90
56861;DHT22;42744;51.094;3.490;2023-05-07T14:59:07;19.40;99.90
56861;DHT22;42744;51.094;3.490;2023-05-07T15:01:35;19.40;99.90
56861;DHT22;42744;51.094;3.490;2023-05-07T15:04:03;19.40;99.90
56861;DHT22;42744;51.094;3.490;2023-05-07T15:06:29;19.50;99.90
56861;DHT22;42744;51.094;3.490;2023-05-07T15:08:55;19.50;99.90
56861;DHT22;42744;51.094;3.490;2023-05-07T15:11:22;19.50;99.90
56861;DHT22;42744;51.094;3.490;2023-05-07T15:13:48;19.40;99.90
56861;DHT22;42744;51.094;3.490;2023-05-07T15:16:15;19.50;99.90
56861;DHT22;42744;51.094;3.490;2023-05-07T15:18:41;19.50;99.90
56861;DHT22;42744;51.094;3.490;2023-05-07T15:21:07;19.40;99.90
56861;DHT22;42744;51.094;3.490;2023-05-07T15:23:33;19.40;99.90
56861;DHT22;42744;51.094;3.490;2023-05-07T15:25:59;19.40;99.90
56861;DHT22;42744;51.094;3.490;2023-05-07T15:28:26;19.40;99.90
56861;DHT22;42744;51.094;3.490;2023-05-07T15:30:55;19.30;99.90
56861;DHT22;42744;51.094;3.490;2023-05-07T15:33:21;19.30;99.90
56861;DHT22;42744;51.094;3.490;2023-05-07T15:35:47;19.20;99.90
56861;DHT22;42744;51.094;3.490;2023-05-07T15:38:13;19.20;99.90
56861;DHT22;42744;51.094;3.490;2023-05-07T15:40:39;19.10;99.90
56861;DHT22;42744;51.094;3.490;2023-05-07T15:43:09;19.10;99.90
56861;DHT22;42744;51.094;3.490;2023-05-07T15:45:40;19.10;99.90
56861;DHT22;42744;51.094;3.490;2023-05-07T15:48:06;19.00;99.90
56861;DHT22;42744;51.094;3.490;2023-05-07T15:50:32;18.90;99.90
56861;DHT22;42744;51.094;3.490;2023-05-07T15:52:58;18.70;99.90